sensor_id;sensor_type;location;lat;lon;timestamp;P1;durP1;ratioP1;P2;durP2;ratioP2
2416;SDS011;1219;48.736;9.330;2023-03-02T00:01:34;24.77;;;17.00;;
2416;SDS011;1219;48.736;9.330;2023-03-02T00:04:02;24.27;;;16.40;;
2416;SDS011;1219;48.736;9.330;2023-03-02T00:06:30;27.50;;;17.83;;
2416;SDS011;1219;48.736;9.330;2023-03-02T00:08:57;27.57;;;18.53;;
2416;SDS011;1219;48.736;9.330;2023-03-02T00:11:24;31.43;;;17.10;;
2416;SDS011;1219;48.736;9.330;2023-03-02T00:13:50;25.20;;;17.20;;
2416;SDS011;1219;48.736;9.330;2023-03-02T00:16:16;25.10;;;16.80;;
2416;SDS011;1219;48.736;9.330;2023-03-02T00:18:42;28.80;;;18.90;;
2416;SDS011;1219;48.736;9.330;2023-03-02T00:21:08;24.07;;;17.33;;
2416;SDS011;1219;48.736;9.330;2023-03-02T00:23:35;25.40;;;16.40;;
2416;SDS011;1219;48.736;9.330;2023-03-02T00:26:02;28.43;;;18.23;;
2416;SDS011;1219;48.736;9.330;2023-03-02T00:28:28;26.43;;;17.50;;
2416;SDS011;1219;48.736;9.330;2023-03-02T00:30:54;27.63;;;17.53;;
2416;SDS011;1219;48.736;9.330;2023-03-02T00:33:20;25.47;;;19.13;;
2416;SDS011;1219;48.736;9.330;2023-03-02T00:35:46;24.00;;;17.50;;
2416;SDS011;1219;48.736;9.330;2023-03-02T00:38:12;22.63;;;16.50;;
2416;SDS011;1219;48.736;9.330;2023-03-02T00:40:42;30.77;;;17.43;;
2416;SDS011;1219;48.736;9.330;2023-03-02T00:43:09;24.90;;;16.10;;
2416;SDS011;1219;48.736;9.330;2023-03-02T00:45:35;22.17;;;16.03;;
2416;SDS011;1219;48.736;9.330;2023-03-02T00:48:01;21.40;;;16.30;;
2416;SDS011;1219;48.736;9.330;2023-03-02T00:50:27;28.30;;;19.70;;
2416;SDS011;1219;48.736;9.330;2023-03-02T00:52:53;26.03;;;17.17;;
2416;SDS011;1219;48.736;9.330;2023-03-02T00:55:19;28.13;;;18.17;;
2416;SDS011;1219;48.736;9.330;2023-03-02T00:57:45;25.70;;;18.00;;
2416;SDS011;1219;48.736;9.330;2023-03-02T01:00:19;29.93;;;19.17;;
2416;SDS011;1219;48.736;9.330;2023-03-02T01:02:45;32.20;;;18.60;;
2416;SDS011;1219;48.736;9.330;2023-03-02T01:05:11;30.40;;;17.90;;
2416;SDS011;1219;48.736;9.330;2023-03-02T01:07:37;27.63;;;15.73;;
2416;SDS011;1219;48.736;9.330;2023-03-02T01:10:03;30.30;;;17.93;;
2416;SDS011;1219;48.736;9.330;2023-03-02T01:12:30;30.90;;;17.97;;
2416;SDS011;1219;48.736;9.330;2023-03-02T01:14:56;31.67;;;16.83;;
2416;SDS011;1219;48.736;9.330;2023-03-02T01:17:22;35.67;;;18.83;;
2416;SDS011;1219;48.736;9.330;2023-03-02T01:19:49;28.90;;;18.03;;
2416;SDS011;1219;48.736;9.330;2023-03-02T01:22:15;26.83;;;17.60;;
2416;SDS011;1219;48.736;9.330;2023-03-02T01:24:41;27.50;;;17.17;;
2416;SDS011;1219;48.736;9.330;2023-03-02T01:27:07;29.13;;;19.20;;
2416;SDS011;1219;48.736;9.330;2023-03-02T01:29:33;25.33;;;18.33;;
2416;SDS011;1219;48.736;9.330;2023-03-02T01:31:59;34.00;;;19.50;;
2416;SDS011;1219;48.736;9.330;2023-03-02T01:34:25;31.87;;;19.23;;
2416;SDS011;1219;48.736;9.330;2023-03-02T01:36:50;28.17;;;18.97;;
2416;SDS011;1219;48.736;9.330;2023-03-02T01:39:16;29.50;;;19.10;;
2416;SDS011;1219;48.736;9.330;2023-03-02T01:41:46;26.23;;;18.37;;
2416;SDS011;1219;48.736;9.330;2023-03-02T01:46:57;34.53;;;19.17;;
2416;SDS011;1219;48.736;9.330;2023-03-02T01:49:23;28.97;;;19.00;;
2416;SDS011;1219;48.736;9.330;2023-03-02T01:51:49;29.90;;;19.57;;
2416;SDS011;1219;48.736;9.330;2023-03-02T01:54:17;27.80;;;18.57;;
2416;SDS011;1219;48.736;9.330;2023-03-02T01:56:47;32.50;;;20.63;;
2416;SDS011;1219;48.736;9.330;2023-03-02T01:59:16;33.87;;;21.00;;
2416;SDS011;1219;48.736;9.330;2023-03-02T02:01:43;23.53;;;18.47;;
2416;SDS011;1219;48.736;9.330;2023-03-02T02:04:10;28.53;;;18.40;;
2416;SDS011;1219;48.736;9.330;2023-03-02T02:06:37;30.07;;;20.07;;
2416;SDS011;1219;48.736;9.330;2023-03-02T02:09:04;29.93;;;18.80;;
2416;SDS011;1219;48.736;9.330;2023-03-02T02:11:32;31.07;;;18.83;;
2416;SDS011;1219;48.736;9.330;2023-03-02T02:13:58;30.17;;;19.77;;
2416;SDS011;1219;48.736;9.330;2023-03-02T02:16:25;32.27;;;20.80;;
2416;SDS011;1219;48.736;9.330;2023-03-02T02:18:51;31.93;;;19.07;;
2416;SDS011;1219;48.736;9.330;2023-03-02T02:21:18;29.97;;;18.20;;
2416;SDS011;1219;48.736;9.330;2023-03-02T02:26:19;32.03;;;19.43;;
2416;SDS011;1219;48.736;9.330;2023-03-02T02:31:36;33.20;;;19.10;;
2416;SDS011;1219;48.736;9.330;2023-03-02T02:36:37;32.30;;;19.80;;
2416;SDS011;1219;48.736;9.330;2023-03-02T02:39:04;32.60;;;18.87;;
2416;SDS011;1219;48.736;9.330;2023-03-02T02:41:33;31.80;;;20.37;;
2416;SDS011;1219;48.736;9.330;2023-03-02T02:43:59;31.77;;;19.60;;
2416;SDS011;1219;48.736;9.330;2023-03-02T02:46:25;33.23;;;19.27;;
2416;SDS011;1219;48.736;9.330;2023-03-02T02:48:52;31.77;;;20.73;;
2416;SDS011;1219;48.736;9.330;2023-03-02T02:51:21;25.03;;;17.93;;
2416;SDS011;1219;48.736;9.330;2023-03-02T02:56:14;31.60;;;20.43;;
2416;SDS011;1219;48.736;9.330;2023-03-02T02:58:42;32.90;;;18.87;;
2416;SDS011;1219;48.736;9.330;2023-03-02T03:01:16;28.23;;;18.93;;
2416;SDS011;1219;48.736;9.330;2023-03-02T03:03:44;27.00;;;18.30;;
2416;SDS011;1219;48.736;9.330;2023-03-02T03:06:16;28.00;;;18.80;;
2416;SDS011;1219;48.736;9.330;2023-03-02T03:11:09;27.70;;;19.40;;
2416;SDS011;1219;48.736;9.330;2023-03-02T03:13:36;29.00;;;19.03;;
2416;SDS011;1219;48.736;9.330;2023-03-02T03:16:03;33.73;;;18.70;;
2416;SDS011;1219;48.736;9.330;2023-03-02T03:18:31;37.03;;;21.13;;
2416;SDS011;1219;48.736;9.330;2023-03-02T03:20:56;30.13;;;18.70;;
2416;SDS011;1219;48.736;9.330;2023-03-02T03:23:23;35.43;;;18.47;;
2416;SDS011;1219;48.736;9.330;2023-03-02T03:25:49;25.33;;;17.20;;
2416;SDS011;1219;48.736;9.330;2023-03-02T03:28:15;28.17;;;17.70;;
2416;SDS011;1219;48.736;9.330;2023-03-02T03:30:42;30.30;;;18.83;;
2416;SDS011;1219;48.736;9.330;2023-03-02T03:33:08;35.20;;;20.87;;
2416;SDS011;1219;48.736;9.330;2023-03-02T03:35:37;25.93;;;17.60;;
2416;SDS011;1219;48.736;9.330;2023-03-02T03:38:03;31.30;;;19.37;;
2416;SDS011;1219;48.736;9.330;2023-03-02T03:40:29;29.40;;;17.67;;
2416;SDS011;1219;48.736;9.330;2023-03-02T03:42:58;26.40;;;19.60;;
2416;SDS011;1219;48.736;9.330;2023-03-02T03:45:24;29.87;;;18.20;;
2416;SDS011;1219;48.736;9.330;2023-03-02T03:47:50;30.43;;;19.83;;
2416;SDS011;1219;48.736;9.330;2023-03-02T03:50:16;28.90;;;18.10;;
2416;SDS011;1219;48.736;9.330;2023-03-02T03:52:42;30.70;;;18.67;;
2416;SDS011;1219;48.736;9.330;2023-03-02T03:55:08;29.23;;;19.23;;
2416;SDS011;1219;48.736;9.330;2023-03-02T03:57:34;30.20;;;20.50;;
2416;SDS011;1219;48.736;9.330;2023-03-02T04:00:00;28.70;;;16.07;;
2416;SDS011;1219;48.736;9.330;2023-03-02T04:02:30;35.67;;;21.47;;
2416;SDS011;1219;48.736;9.330;2023-03-02T04:04:56;34.87;;;19.40;;
2416;SDS011;1219;48.736;9.330;2023-03-02T04:07:30;34.13;;;20.93;;
2416;SDS011;1219;48.736;9.330;2023-03-02T04:09:56;32.77;;;19.97;;
2416;SDS011;1219;48.736;9.330;2023-03-02T04:12:28;32.00;;;18.27;;
2416;SDS011;1219;48.736;9.330;2023-03-02T04:14:54;29.90;;;18.63;;
2416;SDS011;1219;48.736;9.330;2023-03-02T04:17:20;33.80;;;20.83;;
2416;SDS011;1219;48.736;9.330;2023-03-02T04:19:46;30.70;;;19.10;;
2416;SDS011;1219;48.736;9.330;2023-03-02T04:22:12;32.13;;;21.30;;
2416;SDS011;1219;48.736;9.330;2023-03-02T04:24:39;31.83;;;19.07;;
2416;SDS011;1219;48.736;9.330;2023-03-02T04:27:05;31.37;;;20.27;;
2416;SDS011;1219;48.736;9.330;2023-03-02T04:29:31;27.53;;;18.03;;
2416;SDS011;1219;48.736;9.330;2023-03-02T04:31:57;31.13;;;19.80;;
2416;SDS011;1219;48.736;9.330;2023-03-02T04:34:22;34.00;;;20.67;;
2416;SDS011;1219;48.736;9.330;2023-03-02T04:36:51;36.17;;;20.70;;
2416;SDS011;1219;48.736;9.330;2023-03-02T04:39:18;33.97;;;19.37;;
2416;SDS011;1219;48.736;9.330;2023-03-02T04:41:44;32.77;;;19.03;;
2416;SDS011;1219;48.736;9.330;2023-03-02T04:44:11;27.03;;;18.27;;
2416;SDS011;1219;48.736;9.330;2023-03-02T04:46:37;31.53;;;20.47;;
2416;SDS011;1219;48.736;9.330;2023-03-02T04:49:03;31.77;;;20.13;;
2416;SDS011;1219;48.736;9.330;2023-03-02T04:51:30;32.67;;;19.80;;
2416;SDS011;1219;48.736;9.330;2023-03-02T04:53:59;41.57;;;21.23;;
2416;SDS011;1219;48.736;9.330;2023-03-02T04:56:25;42.17;;;20.73;;
2416;SDS011;1219;48.736;9.330;2023-03-02T04:58:52;33.87;;;21.00;;
2416;SDS011;1219;48.736;9.330;2023-03-02T05:01:18;35.60;;;21.37;;
2416;SDS011;1219;48.736;9.330;2023-03-02T05:03:44;35.63;;;21.23;;
2416;SDS011;1219;48.736;9.330;2023-03-02T05:06:11;38.97;;;20.77;;
2416;SDS011;1219;48.736;9.330;2023-03-02T05:08:37;36.03;;;21.20;;
2416;SDS011;1219;48.736;9.330;2023-03-02T05:11:04;29.50;;;19.83;;
2416;SDS011;1219;48.736;9.330;2023-03-02T05:13:31;35.40;;;22.07;;
2416;SDS011;1219;48.736;9.330;2023-03-02T05:15:58;30.93;;;19.80;;
2416;SDS011;1219;48.736;9.330;2023-03-02T05:18:24;36.73;;;23.00;;
2416;SDS011;1219;48.736;9.330;2023-03-02T05:20:51;36.90;;;21.73;;
2416;SDS011;1219;48.736;9.330;2023-03-02T05:23:17;31.10;;;21.57;;
2416;SDS011;1219;48.736;9.330;2023-03-02T05:25:48;32.80;;;19.60;;
2416;SDS011;1219;48.736;9.330;2023-03-02T05:28:14;32.07;;;16.70;;
2416;SDS011;1219;48.736;9.330;2023-03-02T05:30:40;35.53;;;21.20;;
2416;SDS011;1219;48.736;9.330;2023-03-02T05:33:06;31.03;;;20.10;;
2416;SDS011;1219;48.736;9.330;2023-03-02T05:35:32;31.67;;;20.37;;
2416;SDS011;1219;48.736;9.330;2023-03-02T05:37:58;29.10;;;20.30;;
2416;SDS011;1219;48.736;9.330;2023-03-02T05:40:24;34.97;;;20.70;;
2416;SDS011;1219;48.736;9.330;2023-03-02T05:42:50;36.20;;;20.50;;
2416;SDS011;1219;48.736;9.330;2023-03-02T05:45:18;28.83;;;19.03;;
2416;SDS011;1219;48.736;9.330;2023-03-02T05:47:45;31.77;;;18.77;;
2416;SDS011;1219;48.736;9.330;2023-03-02T05:50:12;30.53;;;18.80;;
2416;SDS011;1219;48.736;9.330;2023-03-02T05:52:38;34.60;;;20.07;;
2416;SDS011;1219;48.736;9.330;2023-03-02T05:55:04;26.47;;;18.20;;
2416;SDS011;1219;48.736;9.330;2023-03-02T05:57:30;30.63;;;19.43;;
2416;SDS011;1219;48.736;9.330;2023-03-02T05:59:56;33.50;;;19.00;;
2416;SDS011;1219;48.736;9.330;2023-03-02T06:02:22;32.10;;;19.50;;
2416;SDS011;1219;48.736;9.330;2023-03-02T06:04:48;33.93;;;19.73;;
2416;SDS011;1219;48.736;9.330;2023-03-02T06:07:13;30.97;;;18.80;;
2416;SDS011;1219;48.736;9.330;2023-03-02T06:09:40;27.17;;;18.63;;
2416;SDS011;1219;48.736;9.330;2023-03-02T06:12:06;32.57;;;19.53;;
2416;SDS011;1219;48.736;9.330;2023-03-02T06:14:32;32.40;;;22.53;;
2416;SDS011;1219;48.736;9.330;2023-03-02T06:16:59;30.00;;;19.77;;
2416;SDS011;1219;48.736;9.330;2023-03-02T06:19:24;29.97;;;18.57;;
2416;SDS011;1219;48.736;9.330;2023-03-02T06:21:50;33.30;;;18.80;;
2416;SDS011;1219;48.736;9.330;2023-03-02T06:24:16;25.40;;;17.63;;
2416;SDS011;1219;48.736;9.330;2023-03-02T06:26:43;27.17;;;18.10;;
2416;SDS011;1219;48.736;9.330;2023-03-02T06:29:09;27.53;;;17.70;;
2416;SDS011;1219;48.736;9.330;2023-03-02T06:31:34;29.03;;;18.17;;
2416;SDS011;1219;48.736;9.330;2023-03-02T06:34:00;27.13;;;17.83;;
2416;SDS011;1219;48.736;9.330;2023-03-02T06:36:27;28.73;;;18.70;;
2416;SDS011;1219;48.736;9.330;2023-03-02T06:38:53;33.63;;;17.73;;
2416;SDS011;1219;48.736;9.330;2023-03-02T06:41:19;32.23;;;19.57;;
2416;SDS011;1219;48.736;9.330;2023-03-02T06:43:45;32.50;;;19.63;;
2416;SDS011;1219;48.736;9.330;2023-03-02T06:46:11;31.40;;;16.53;;
2416;SDS011;1219;48.736;9.330;2023-03-02T06:48:38;33.17;;;20.40;;
2416;SDS011;1219;48.736;9.330;2023-03-02T06:51:04;33.23;;;19.33;;
2416;SDS011;1219;48.736;9.330;2023-03-02T06:53:31;28.80;;;18.40;;
2416;SDS011;1219;48.736;9.330;2023-03-02T06:55:57;23.17;;;17.33;;
2416;SDS011;1219;48.736;9.330;2023-03-02T06:58:23;31.80;;;18.70;;
2416;SDS011;1219;48.736;9.330;2023-03-02T07:00:49;29.50;;;17.93;;
2416;SDS011;1219;48.736;9.330;2023-03-02T07:03:15;27.03;;;17.10;;
2416;SDS011;1219;48.736;9.330;2023-03-02T07:05:42;34.90;;;19.20;;
2416;SDS011;1219;48.736;9.330;2023-03-02T07:08:08;28.57;;;19.30;;
2416;SDS011;1219;48.736;9.330;2023-03-02T07:10:35;31.03;;;18.63;;
2416;SDS011;1219;48.736;9.330;2023-03-02T07:13:01;25.67;;;16.47;;
2416;SDS011;1219;48.736;9.330;2023-03-02T07:15:27;29.90;;;16.87;;
2416;SDS011;1219;48.736;9.330;2023-03-02T07:17:53;23.53;;;16.90;;
2416;SDS011;1219;48.736;9.330;2023-03-02T07:20:19;27.00;;;17.50;;
2416;SDS011;1219;48.736;9.330;2023-03-02T07:22:45;31.60;;;18.30;;
2416;SDS011;1219;48.736;9.330;2023-03-02T07:25:11;24.60;;;16.93;;
2416;SDS011;1219;48.736;9.330;2023-03-02T07:27:37;29.13;;;18.73;;
2416;SDS011;1219;48.736;9.330;2023-03-02T07:30:04;25.30;;;17.17;;
2416;SDS011;1219;48.736;9.330;2023-03-02T07:32:30;29.73;;;18.80;;
2416;SDS011;1219;48.736;9.330;2023-03-02T07:34:56;25.80;;;16.90;;
2416;SDS011;1219;48.736;9.330;2023-03-02T07:37:22;24.40;;;17.03;;
2416;SDS011;1219;48.736;9.330;2023-03-02T07:39:48;26.97;;;17.47;;
2416;SDS011;1219;48.736;9.330;2023-03-02T07:42:14;27.50;;;18.37;;
2416;SDS011;1219;48.736;9.330;2023-03-02T07:44:41;27.80;;;17.73;;
2416;SDS011;1219;48.736;9.330;2023-03-02T07:47:07;28.27;;;19.63;;
2416;SDS011;1219;48.736;9.330;2023-03-02T07:49:33;30.07;;;19.73;;
2416;SDS011;1219;48.736;9.330;2023-03-02T07:52:02;34.60;;;17.90;;
2416;SDS011;1219;48.736;9.330;2023-03-02T07:54:28;30.13;;;18.00;;
2416;SDS011;1219;48.736;9.330;2023-03-02T07:56:55;24.37;;;17.60;;
2416;SDS011;1219;48.736;9.330;2023-03-02T07:59:21;26.87;;;17.37;;
2416;SDS011;1219;48.736;9.330;2023-03-02T08:01:47;25.10;;;16.43;;
2416;SDS011;1219;48.736;9.330;2023-03-02T08:04:13;34.83;;;16.90;;
2416;SDS011;1219;48.736;9.330;2023-03-02T08:06:39;25.67;;;18.00;;
2416;SDS011;1219;48.736;9.330;2023-03-02T08:09:05;30.97;;;17.90;;
2416;SDS011;1219;48.736;9.330;2023-03-02T08:11:31;26.63;;;17.40;;
2416;SDS011;1219;48.736;9.330;2023-03-02T08:14:00;22.23;;;16.30;;
2416;SDS011;1219;48.736;9.330;2023-03-02T08:16:27;27.80;;;18.13;;
2416;SDS011;1219;48.736;9.330;2023-03-02T08:18:53;22.80;;;16.50;;
2416;SDS011;1219;48.736;9.330;2023-03-02T08:21:20;28.07;;;16.83;;
2416;SDS011;1219;48.736;9.330;2023-03-02T08:23:47;25.53;;;16.73;;
2416;SDS011;1219;48.736;9.330;2023-03-02T08:26:13;28.83;;;18.60;;
2416;SDS011;1219;48.736;9.330;2023-03-02T08:28:40;23.03;;;16.47;;
2416;SDS011;1219;48.736;9.330;2023-03-02T08:31:06;26.23;;;15.73;;
2416;SDS011;1219;48.736;9.330;2023-03-02T08:33:32;21.30;;;14.70;;
2416;SDS011;1219;48.736;9.330;2023-03-02T08:36:00;26.57;;;16.97;;
2416;SDS011;1219;48.736;9.330;2023-03-02T08:38:26;24.43;;;15.50;;
2416;SDS011;1219;48.736;9.330;2023-03-02T08:40:52;32.17;;;17.33;;
2416;SDS011;1219;48.736;9.330;2023-03-02T08:43:19;24.40;;;16.77;;
2416;SDS011;1219;48.736;9.330;2023-03-02T08:45:49;25.60;;;16.80;;
2416;SDS011;1219;48.736;9.330;2023-03-02T08:48:15;29.40;;;18.57;;
2416;SDS011;1219;48.736;9.330;2023-03-02T08:50:41;24.97;;;16.87;;
2416;SDS011;1219;48.736;9.330;2023-03-02T08:53:07;26.67;;;16.47;;
2416;SDS011;1219;48.736;9.330;2023-03-02T08:55:34;23.50;;;16.00;;
2416;SDS011;1219;48.736;9.330;2023-03-02T08:58:00;25.63;;;17.20;;
2416;SDS011;1219;48.736;9.330;2023-03-02T09:00:26;25.20;;;16.30;;
2416;SDS011;1219;48.736;9.330;2023-03-02T09:02:52;21.40;;;15.57;;
2416;SDS011;1219;48.736;9.330;2023-03-02T09:05:18;24.17;;;16.03;;
2416;SDS011;1219;48.736;9.330;2023-03-02T09:07:44;26.43;;;16.20;;
2416;SDS011;1219;48.736;9.330;2023-03-02T09:10:09;30.10;;;15.97;;
2416;SDS011;1219;48.736;9.330;2023-03-02T09:12:35;24.67;;;16.20;;
2416;SDS011;1219;48.736;9.330;2023-03-02T09:15:02;28.70;;;17.60;;
2416;SDS011;1219;48.736;9.330;2023-03-02T09:17:28;24.87;;;15.33;;
2416;SDS011;1219;48.736;9.330;2023-03-02T09:19:54;34.17;;;17.97;;
2416;SDS011;1219;48.736;9.330;2023-03-02T09:22:20;26.50;;;16.30;;
2416;SDS011;1219;48.736;9.330;2023-03-02T09:24:46;26.70;;;15.97;;
2416;SDS011;1219;48.736;9.330;2023-03-02T09:27:11;29.13;;;17.60;;
2416;SDS011;1219;48.736;9.330;2023-03-02T09:29:37;15.90;;;10.70;;
2416;SDS011;1219;48.736;9.330;2023-03-02T09:32:03;26.50;;;15.80;;
2416;SDS011;1219;48.736;9.330;2023-03-02T09:34:29;27.30;;;19.07;;
2416;SDS011;1219;48.736;9.330;2023-03-02T09:36:55;28.10;;;17.67;;
2416;SDS011;1219;48.736;9.330;2023-03-02T09:39:21;32.57;;;19.53;;
2416;SDS011;1219;48.736;9.330;2023-03-02T09:53:16;28.37;;;18.13;;
2416;SDS011;1219;48.736;9.330;2023-03-02T09:55:19;33.97;;;22.03;;
2416;SDS011;1219;48.736;9.330;2023-03-02T09:57:46;26.93;;;18.23;;
2416;SDS011;1219;48.736;9.330;2023-03-02T10:02:49;24.93;;;16.10;;
2416;SDS011;1219;48.736;9.330;2023-03-02T10:05:57;25.03;;;16.87;;
2416;SDS011;1219;48.736;9.330;2023-03-02T10:08:05;25.53;;;16.67;;
2416;SDS011;1219;48.736;9.330;2023-03-02T10:10:43;20.30;;;15.67;;
2416;SDS011;1219;48.736;9.330;2023-03-02T10:21:02;28.07;;;17.70;;
2416;SDS011;1219;48.736;9.330;2023-03-02T10:26:04;22.63;;;16.30;;
2416;SDS011;1219;48.736;9.330;2023-03-02T10:28:33;19.57;;;14.90;;
2416;SDS011;1219;48.736;9.330;2023-03-02T10:31:11;20.30;;;14.53;;
2416;SDS011;1219;48.736;9.330;2023-03-02T10:33:39;22.33;;;15.70;;
2416;SDS011;1219;48.736;9.330;2023-03-02T10:36:12;28.10;;;17.70;;
2416;SDS011;1219;48.736;9.330;2023-03-02T10:38:42;26.73;;;17.40;;
2416;SDS011;1219;48.736;9.330;2023-03-02T10:41:09;27.80;;;17.70;;
2416;SDS011;1219;48.736;9.330;2023-03-02T10:46:06;22.57;;;17.53;;
2416;SDS011;1219;48.736;9.330;2023-03-02T10:48:45;26.23;;;17.80;;
2416;SDS011;1219;48.736;9.330;2023-03-02T10:51:18;20.93;;;16.23;;
2416;SDS011;1219;48.736;9.330;2023-03-02T10:53:45;23.63;;;17.27;;
2416;SDS011;1219;48.736;9.330;2023-03-02T10:56:18;24.33;;;16.57;;
2416;SDS011;1219;48.736;9.330;2023-03-02T10:58:45;22.83;;;17.73;;
2416;SDS011;1219;48.736;9.330;2023-03-02T11:01:15;27.67;;;17.60;;
2416;SDS011;1219;48.736;9.330;2023-03-02T11:03:42;21.57;;;16.40;;
2416;SDS011;1219;48.736;9.330;2023-03-02T11:06:19;21.07;;;16.67;;
2416;SDS011;1219;48.736;9.330;2023-03-02T11:08:56;24.23;;;18.23;;
2416;SDS011;1219;48.736;9.330;2023-03-02T11:11:22;22.73;;;17.00;;
2416;SDS011;1219;48.736;9.330;2023-03-02T11:13:49;20.03;;;16.87;;
2416;SDS011;1219;48.736;9.330;2023-03-02T11:26:19;21.03;;;15.03;;
2416;SDS011;1219;48.736;9.330;2023-03-02T11:31:26;21.93;;;16.20;;
2416;SDS011;1219;48.736;9.330;2023-03-02T11:36:35;21.03;;;17.50;;
2416;SDS011;1219;48.736;9.330;2023-03-02T11:39:04;19.10;;;15.57;;
2416;SDS011;1219;48.736;9.330;2023-03-02T11:41:33;23.37;;;17.20;;
2416;SDS011;1219;48.736;9.330;2023-03-02T11:44:02;21.20;;;16.70;;
2416;SDS011;1219;48.736;9.330;2023-03-02T11:46:32;22.60;;;17.67;;
2416;SDS011;1219;48.736;9.330;2023-03-02T11:49:00;21.83;;;17.63;;
2416;SDS011;1219;48.736;9.330;2023-03-02T11:51:29;23.20;;;16.60;;
2416;SDS011;1219;48.736;9.330;2023-03-02T11:54:01;21.03;;;16.60;;
2416;SDS011;1219;48.736;9.330;2023-03-02T11:56:29;17.50;;;14.60;;
2416;SDS011;1219;48.736;9.330;2023-03-02T11:58:56;19.37;;;15.80;;
2416;SDS011;1219;48.736;9.330;2023-03-02T12:01:24;19.27;;;15.47;;
2416;SDS011;1219;48.736;9.330;2023-03-02T12:03:51;19.53;;;17.07;;
2416;SDS011;1219;48.736;9.330;2023-03-02T12:08:44;19.93;;;14.60;;
2416;SDS011;1219;48.736;9.330;2023-03-02T12:19:11;21.30;;;16.43;;
2416;SDS011;1219;48.736;9.330;2023-03-02T12:21:41;24.83;;;16.23;;
2416;SDS011;1219;48.736;9.330;2023-03-02T12:24:17;20.23;;;14.33;;
2416;SDS011;1219;48.736;9.330;2023-03-02T12:26:46;21.23;;;16.00;;
2416;SDS011;1219;48.736;9.330;2023-03-02T12:34:08;24.93;;;15.80;;
2416;SDS011;1219;48.736;9.330;2023-03-02T12:36:40;20.80;;;16.07;;
2416;SDS011;1219;48.736;9.330;2023-03-02T12:41:38;19.23;;;15.03;;
2416;SDS011;1219;48.736;9.330;2023-03-02T12:46:45;21.67;;;14.83;;
2416;SDS011;1219;48.736;9.330;2023-03-02T12:49:13;19.80;;;15.53;;
2416;SDS011;1219;48.736;9.330;2023-03-02T12:54:16;22.60;;;16.27;;
2416;SDS011;1219;48.736;9.330;2023-03-02T12:56:42;21.60;;;15.13;;
2416;SDS011;1219;48.736;9.330;2023-03-02T12:59:18;20.90;;;15.17;;
2416;SDS011;1219;48.736;9.330;2023-03-02T13:01:44;18.33;;;14.83;;
2416;SDS011;1219;48.736;9.330;2023-03-02T13:04:21;21.33;;;16.13;;
2416;SDS011;1219;48.736;9.330;2023-03-02T13:06:47;21.50;;;15.63;;
2416;SDS011;1219;48.736;9.330;2023-03-02T13:09:13;20.70;;;16.57;;
2416;SDS011;1219;48.736;9.330;2023-03-02T13:11:40;20.17;;;16.30;;
2416;SDS011;1219;48.736;9.330;2023-03-02T13:14:17;21.10;;;15.50;;
2416;SDS011;1219;48.736;9.330;2023-03-02T13:16:51;19.90;;;15.90;;
2416;SDS011;1219;48.736;9.330;2023-03-02T13:19:17;22.60;;;16.03;;
2416;SDS011;1219;48.736;9.330;2023-03-02T13:21:44;16.80;;;14.50;;
2416;SDS011;1219;48.736;9.330;2023-03-02T13:26:55;19.90;;;15.07;;
2416;SDS011;1219;48.736;9.330;2023-03-02T13:29:24;20.37;;;15.47;;
2416;SDS011;1219;48.736;9.330;2023-03-02T13:31:50;19.20;;;14.23;;
2416;SDS011;1219;48.736;9.330;2023-03-02T13:34:26;18.73;;;15.60;;
2416;SDS011;1219;48.736;9.330;2023-03-02T13:36:53;22.63;;;16.50;;
2416;SDS011;1219;48.736;9.330;2023-03-02T13:39:20;16.90;;;15.10;;
2416;SDS011;1219;48.736;9.330;2023-03-02T13:42:00;19.13;;;15.10;;
2416;SDS011;1219;48.736;9.330;2023-03-02T13:44:27;22.23;;;14.80;;
2416;SDS011;1219;48.736;9.330;2023-03-02T13:46:54;19.43;;;15.00;;
2416;SDS011;1219;48.736;9.330;2023-03-02T13:49:27;17.83;;;15.10;;
2416;SDS011;1219;48.736;9.330;2023-03-02T13:52:01;22.43;;;15.47;;
2416;SDS011;1219;48.736;9.330;2023-03-02T13:54:28;17.80;;;14.73;;
2416;SDS011;1219;48.736;9.330;2023-03-02T13:56:55;18.50;;;14.60;;
2416;SDS011;1219;48.736;9.330;2023-03-02T13:59:22;18.50;;;14.17;;
2416;SDS011;1219;48.736;9.330;2023-03-02T14:01:48;16.80;;;13.47;;
2416;SDS011;1219;48.736;9.330;2023-03-02T14:04:15;18.43;;;15.70;;
2416;SDS011;1219;48.736;9.330;2023-03-02T14:06:43;23.10;;;14.10;;
2416;SDS011;1219;48.736;9.330;2023-03-02T14:09:09;18.57;;;14.47;;
2416;SDS011;1219;48.736;9.330;2023-03-02T14:11:36;18.57;;;14.33;;
2416;SDS011;1219;48.736;9.330;2023-03-02T14:14:03;16.93;;;13.10;;
2416;SDS011;1219;48.736;9.330;2023-03-02T14:16:30;16.07;;;13.90;;
2416;SDS011;1219;48.736;9.330;2023-03-02T14:18:59;16.43;;;12.83;;
2416;SDS011;1219;48.736;9.330;2023-03-02T14:21:25;18.23;;;14.00;;
2416;SDS011;1219;48.736;9.330;2023-03-02T14:23:52;15.53;;;13.57;;
2416;SDS011;1219;48.736;9.330;2023-03-02T14:28:57;17.17;;;13.43;;
2416;SDS011;1219;48.736;9.330;2023-03-02T14:31:23;16.87;;;14.10;;
2416;SDS011;1219;48.736;9.330;2023-03-02T14:33:50;20.77;;;15.77;;
2416;SDS011;1219;48.736;9.330;2023-03-02T14:36:17;17.50;;;14.37;;
2416;SDS011;1219;48.736;9.330;2023-03-02T14:38:46;17.23;;;14.03;;
2416;SDS011;1219;48.736;9.330;2023-03-02T14:41:12;18.00;;;15.13;;
2416;SDS011;1219;48.736;9.330;2023-03-02T14:43:40;21.40;;;16.03;;
2416;SDS011;1219;48.736;9.330;2023-03-02T14:46:05;20.83;;;16.07;;
2416;SDS011;1219;48.736;9.330;2023-03-02T14:48:31;20.40;;;15.60;;
2416;SDS011;1219;48.736;9.330;2023-03-02T14:50:57;19.00;;;16.33;;
2416;SDS011;1219;48.736;9.330;2023-03-02T14:53:28;22.10;;;15.20;;
2416;SDS011;1219;48.736;9.330;2023-03-02T14:55:54;24.20;;;15.80;;
2416;SDS011;1219;48.736;9.330;2023-03-02T14:58:24;19.40;;;15.67;;
2416;SDS011;1219;48.736;9.330;2023-03-02T15:00:52;22.77;;;14.73;;
2416;SDS011;1219;48.736;9.330;2023-03-02T15:03:18;18.37;;;15.87;;
2416;SDS011;1219;48.736;9.330;2023-03-02T15:05:49;21.30;;;15.23;;
2416;SDS011;1219;48.736;9.330;2023-03-02T15:08:15;19.70;;;14.87;;
2416;SDS011;1219;48.736;9.330;2023-03-02T15:10:41;17.37;;;15.47;;
2416;SDS011;1219;48.736;9.330;2023-03-02T15:13:08;17.83;;;14.30;;
2416;SDS011;1219;48.736;9.330;2023-03-02T15:15:34;18.70;;;15.80;;
2416;SDS011;1219;48.736;9.330;2023-03-02T15:18:00;17.60;;;15.70;;
2416;SDS011;1219;48.736;9.330;2023-03-02T15:20:26;17.90;;;14.50;;
2416;SDS011;1219;48.736;9.330;2023-03-02T15:22:53;17.37;;;14.77;;
2416;SDS011;1219;48.736;9.330;2023-03-02T15:25:18;19.13;;;15.57;;
2416;SDS011;1219;48.736;9.330;2023-03-02T15:27:47;19.70;;;16.70;;
2416;SDS011;1219;48.736;9.330;2023-03-02T15:30:13;18.27;;;15.13;;
2416;SDS011;1219;48.736;9.330;2023-03-02T15:32:39;19.80;;;15.90;;
2416;SDS011;1219;48.736;9.330;2023-03-02T15:35:06;22.17;;;13.50;;
2416;SDS011;1219;48.736;9.330;2023-03-02T15:37:32;23.77;;;15.60;;
2416;SDS011;1219;48.736;9.330;2023-03-02T15:39:58;21.93;;;16.60;;
2416;SDS011;1219;48.736;9.330;2023-03-02T15:42:24;21.23;;;16.20;;
2416;SDS011;1219;48.736;9.330;2023-03-02T15:44:49;21.50;;;15.80;;
2416;SDS011;1219;48.736;9.330;2023-03-02T15:47:15;24.93;;;16.00;;
2416;SDS011;1219;48.736;9.330;2023-03-02T15:49:41;20.33;;;15.03;;
2416;SDS011;1219;48.736;9.330;2023-03-02T15:52:08;20.70;;;15.77;;
2416;SDS011;1219;48.736;9.330;2023-03-02T15:54:34;23.13;;;16.50;;
2416;SDS011;1219;48.736;9.330;2023-03-02T15:57:00;26.03;;;15.70;;
2416;SDS011;1219;48.736;9.330;2023-03-02T15:59:27;22.40;;;15.30;;
2416;SDS011;1219;48.736;9.330;2023-03-02T16:01:53;22.90;;;17.03;;
2416;SDS011;1219;48.736;9.330;2023-03-02T16:04:26;19.40;;;14.40;;
2416;SDS011;1219;48.736;9.330;2023-03-02T16:06:53;24.03;;;15.30;;
2416;SDS011;1219;48.736;9.330;2023-03-02T16:09:20;23.07;;;15.60;;
2416;SDS011;1219;48.736;9.330;2023-03-02T16:11:47;20.13;;;15.03;;
2416;SDS011;1219;48.736;9.330;2023-03-02T16:14:13;29.40;;;16.50;;